createdAt,value
2018-02-08T00:00:48.279Z,1012.35
2018-02-08T00:01:48.296Z,1012.29
2018-02-08T00:02:48.304Z,1012.30
2018-02-08T00:03:48.319Z,1012.28
2018-02-08T00:04:48.340Z,1012.26
2018-02-08T00:05:48.355Z,1012.28
2018-02-08T00:06:48.369Z,1012.29
2018-02-08T00:07:48.386Z,1012.36
2018-02-08T00:08:48.397Z,1012.37
2018-02-08T00:09:48.408Z,1012.30
2018-02-08T00:10:48.428Z,1012.34
2018-02-08T00:11:48.443Z,1012.31
2018-02-08T00:12:48.451Z,1012.33
2018-02-08T00:13:48.472Z,1012.33
2018-02-08T00:14:48.487Z,1012.35
2018-02-08T00:15:48.501Z,1012.30
2018-02-08T00:16:48.510Z,1012.37
2018-02-08T00:17:48.525Z,1012.38
2018-02-08T00:18:48.545Z,1012.34
2018-02-08T00:19:48.554Z,1012.35
2018-02-08T00:20:48.569Z,1012.35
2018-02-08T00:21:48.591Z,1012.32
2018-02-08T00:22:48.601Z,1012.38
2018-02-08T00:23:48.613Z,1012.31
2018-02-08T00:24:48.633Z,1012.36
2018-02-08T00:25:48.649Z,1012.39
2018-02-08T00:26:48.657Z,1012.34
2018-02-08T00:27:48.672Z,1012.38
2018-02-08T00:28:48.693Z,1012.40
2018-02-08T00:29:48.708Z,1012.39
2018-02-08T00:30:48.722Z,1012.41
2018-02-08T00:31:48.737Z,1012.45
2018-02-08T00:32:48.746Z,1012.38
2018-02-08T00:33:48.762Z,1012.37
2018-02-08T00:34:48.780Z,1012.36
2018-02-08T00:35:48.790Z,1012.33
2018-02-08T00:36:48.804Z,1012.36
2018-02-08T00:37:48.821Z,1012.40
2018-02-08T00:38:48.839Z,1012.43
2018-02-08T00:39:48.856Z,1012.34
2018-02-08T00:40:48.863Z,1012.34
2018-02-08T00:41:48.878Z,1012.29
2018-02-08T00:42:48.897Z,1012.31
2018-02-08T00:43:48.913Z,1012.34
2018-02-08T00:44:48.922Z,1012.40
2018-02-08T00:45:48.942Z,1012.38
2018-02-08T00:46:48.957Z,1012.39
2018-02-08T00:47:48.965Z,1012.33
2018-02-08T00:48:48.987Z,1012.34
2018-02-08T00:49:48.996Z,1012.30
2018-02-08T00:50:49.015Z,1012.33
2018-02-08T00:51:49.030Z,1012.31
2018-02-08T00:52:49.045Z,1012.35
2018-02-08T00:53:49.054Z,1012.36
2018-02-08T00:54:49.077Z,1012.39
2018-02-08T00:55:49.088Z,1012.36
2018-02-08T00:56:49.103Z,1012.30
2018-02-08T00:57:49.113Z,1012.33
2018-02-08T00:58:49.132Z,1012.40
2018-02-08T00:59:49.142Z,1012.39
2018-02-08T01:00:49.163Z,1012.37
2018-02-08T01:01:49.172Z,1012.37
2018-02-08T01:02:49.185Z,1012.33
2018-02-08T01:03:49.201Z,1012.29
2018-02-08T01:04:49.216Z,1012.34
2018-02-08T01:05:49.235Z,1012.24
2018-02-08T01:06:49.244Z,1012.29
2018-02-08T01:07:49.259Z,1012.30
2018-02-08T01:08:49.280Z,1012.25
2018-02-08T01:09:49.295Z,1012.27
2018-02-08T01:10:49.304Z,1012.29
2018-02-08T01:11:49.322Z,1012.32
2018-02-08T01:12:49.333Z,1012.29
2018-02-08T01:13:49.354Z,1012.25
2018-02-08T01:14:49.364Z,1012.34
2018-02-08T01:15:49.382Z,1012.31
2018-02-08T01:16:49.391Z,1012.35
2018-02-08T01:17:49.407Z,1012.30
2018-02-08T01:18:49.426Z,1012.33
2018-02-08T01:19:49.440Z,1012.27
2018-02-08T01:20:49.450Z,1012.27
2018-02-08T01:21:49.465Z,1012.28
2018-02-08T01:22:49.485Z,1012.27
2018-02-08T01:23:49.499Z,1012.29
2018-02-08T01:24:49.508Z,1012.33
2018-02-08T01:25:49.528Z,1012.29
2018-02-08T01:26:49.542Z,1012.29
2018-02-08T01:27:49.552Z,1012.28
2018-02-08T01:28:49.573Z,1012.26
2018-02-08T01:29:49.583Z,1012.29
2018-02-08T01:30:49.602Z,1012.31
2018-02-08T01:31:49.617Z,1012.34
2018-02-08T01:32:49.631Z,1012.28
2018-02-08T01:33:49.645Z,1012.35
2018-02-08T01:34:49.654Z,1012.32
2018-02-08T01:35:49.675Z,1012.30
2018-02-08T01:36:49.691Z,1012.36
2018-02-08T01:37:49.699Z,1012.34
2018-02-08T01:38:49.714Z,1012.32
2018-02-08T01:39:49.728Z,1012.37
2018-02-08T01:40:49.749Z,1012.34
2018-02-08T01:41:49.763Z,1012.40
2018-02-08T01:42:49.776Z,1012.35
2018-02-08T01:43:49.787Z,1012.44
2018-02-08T01:44:49.807Z,1012.40
2018-02-08T01:45:49.821Z,1012.40
2018-02-08T01:46:49.829Z,1012.39
2018-02-08T01:47:49.846Z,1012.38
2018-02-08T01:48:49.864Z,1012.31
2018-02-08T01:49:49.875Z,1012.39
2018-02-08T01:50:49.894Z,1012.34
2018-02-08T01:51:49.902Z,1012.38
2018-02-08T01:52:49.923Z,1012.35
2018-02-08T01:53:49.937Z,1012.32
2018-02-08T01:54:49.951Z,1012.40
2018-02-08T01:55:49.960Z,1012.37
2018-02-08T01:56:49.978Z,1012.39
2018-02-08T01:57:49.992Z,1012.37
2018-02-08T01:58:50.063Z,1012.39
2018-02-08T01:59:50.025Z,1012.39
2018-02-08T02:00:50.033Z,1012.41
2018-02-08T02:01:50.048Z,1012.41
2018-02-08T02:02:50.068Z,1012.42
2018-02-08T02:03:50.083Z,1012.43
2018-02-08T02:04:50.092Z,1012.40
2018-02-08T02:05:50.108Z,1012.37
2018-02-08T02:06:50.126Z,1012.41
2018-02-08T02:07:50.139Z,1012.40
2018-02-08T02:08:50.155Z,1012.41
2018-02-08T02:09:50.169Z,1012.40
2018-02-08T02:10:50.183Z,1012.41
2018-02-08T02:11:50.192Z,1012.40
2018-02-08T02:12:50.213Z,1012.42
2018-02-08T02:13:50.221Z,1012.45
2018-02-08T02:14:50.242Z,1012.42
2018-02-08T02:15:50.251Z,1012.39
2018-02-08T02:16:50.271Z,1012.35
2018-02-08T02:17:50.281Z,1012.27
2018-02-08T02:18:50.300Z,1012.32
2018-02-08T02:19:50.309Z,1012.25
2018-02-08T02:20:50.329Z,1012.25
2018-02-08T02:21:50.346Z,1012.30
2018-02-08T02:22:50.352Z,1012.31
2018-02-08T02:23:50.366Z,1012.30
2018-02-08T02:24:50.380Z,1012.29
2018-02-08T02:25:50.395Z,1012.29
2018-02-08T02:26:50.408Z,1012.30
2018-02-08T02:27:50.432Z,1012.29
2018-02-08T02:28:50.438Z,1012.32
2018-02-08T02:29:50.458Z,1012.30
2018-02-08T02:30:50.465Z,1012.32
2018-02-08T02:31:50.486Z,1012.30
2018-02-08T02:32:50.495Z,1012.32
2018-02-08T02:33:50.515Z,1012.34
2018-02-08T02:34:50.524Z,1012.36
2018-02-08T02:35:50.544Z,1012.43
2018-02-08T02:36:50.554Z,1012.40
2018-02-08T02:37:50.569Z,1012.44
2018-02-08T02:38:50.587Z,1012.49
2018-02-08T02:39:50.595Z,1012.44
2018-02-08T02:40:50.616Z,1012.45
2018-02-08T02:41:50.630Z,1012.42
2018-02-08T02:42:50.645Z,1012.44
2018-02-08T02:43:50.653Z,1012.44
2018-02-08T02:44:50.723Z,1012.44
2018-02-08T02:45:50.688Z,1012.46
2018-02-08T02:46:50.697Z,1012.40
2018-02-08T02:47:50.711Z,1012.40
2018-02-08T02:48:50.731Z,1012.41
2018-02-08T02:49:50.745Z,1012.40
2018-02-08T02:50:50.752Z,1012.38
2018-02-08T02:51:50.768Z,1012.41
2018-02-08T02:52:50.789Z,1012.41
2018-02-08T02:53:50.798Z,1012.43
2018-02-08T02:54:50.815Z,1012.41
2018-02-08T02:55:50.830Z,1012.44
2018-02-08T02:56:50.839Z,1012.40
2018-02-08T02:57:50.860Z,1012.41
2018-02-08T02:58:50.873Z,1012.40
2018-02-08T02:59:50.887Z,1012.42
2018-02-08T03:00:50.903Z,1012.46
2018-02-08T03:01:50.911Z,1012.38
2018-02-08T03:02:50.938Z,1012.37
2018-02-08T03:03:50.945Z,1012.48
2018-02-08T03:04:50.954Z,1012.44
2018-02-08T03:05:50.967Z,1012.42
2018-02-08T03:06:50.987Z,1012.44
2018-02-08T03:07:51.001Z,1012.47
2018-02-08T03:08:51.010Z,1012.46
2018-02-08T03:09:51.030Z,1012.44
2018-02-08T03:10:51.039Z,1012.46
2018-02-08T03:11:51.053Z,1012.46
2018-02-08T03:12:51.068Z,1012.50
2018-02-08T03:13:51.082Z,1012.40
2018-02-08T03:14:51.098Z,1012.42
2018-02-08T03:15:51.118Z,1012.46
2018-02-08T03:16:51.124Z,1012.45
2018-02-08T03:17:51.139Z,1012.43
2018-02-08T03:18:51.158Z,1012.44
2018-02-08T03:19:51.168Z,1012.46
2018-02-08T03:20:51.187Z,1012.43
2018-02-08T03:21:51.196Z,1012.45
2018-02-08T03:22:51.214Z,1012.47
2018-02-08T03:23:51.223Z,1012.45
2018-02-08T03:24:51.244Z,1012.49
2018-02-08T03:25:51.252Z,1012.49
2018-02-08T03:26:51.277Z,1012.41
2018-02-08T03:27:51.280Z,1012.42
2018-02-08T03:28:51.295Z,1012.43
2018-02-08T03:29:51.315Z,1012.47
2018-02-08T03:30:51.330Z,1012.47
2018-02-08T03:31:51.342Z,1012.47
2018-02-08T03:32:51.352Z,1012.54
2018-02-08T03:33:51.371Z,1012.49
2018-02-08T03:34:51.379Z,1012.48
2018-02-08T03:35:51.399Z,1012.49
2018-02-08T03:36:51.408Z,1012.49
2018-02-08T03:37:51.428Z,1012.52
2018-02-08T03:38:51.437Z,1012.46
2018-02-08T03:39:51.459Z,1012.50
2018-02-08T03:40:51.465Z,1012.46
2018-02-08T03:41:51.485Z,1012.48
2018-02-08T03:42:51.494Z,1012.48
2018-02-08T03:43:51.513Z,1012.54
2018-02-08T03:44:51.522Z,1012.51
2018-02-08T03:45:51.541Z,1012.58
2018-02-08T03:46:51.549Z,1012.56
2018-02-08T03:47:51.569Z,1012.58
2018-02-08T03:48:51.578Z,1012.58
2018-02-08T03:49:51.592Z,1012.59
2018-02-08T03:50:51.612Z,1012.60
2018-02-08T03:51:51.620Z,1012.62
2018-02-08T03:52:51.640Z,1012.60
2018-02-08T03:53:51.649Z,1012.62
2018-02-08T03:54:51.673Z,1012.63
2018-02-08T03:55:51.678Z,1012.62
2018-02-08T03:56:51.697Z,1012.64
2018-02-08T03:57:51.705Z,1012.61
2018-02-08T03:58:51.724Z,1012.67
2018-02-08T03:59:51.734Z,1012.60
2018-02-08T04:00:51.752Z,1012.62
2018-02-08T04:01:51.761Z,1012.63
2018-02-08T04:02:51.781Z,1012.65
2018-02-08T04:03:51.790Z,1012.63
2018-02-08T04:04:51.810Z,1012.63
2018-02-08T04:05:51.819Z,1012.64
2018-02-08T04:06:51.837Z,1012.64
2018-02-08T04:07:51.852Z,1012.65
2018-02-08T04:08:51.860Z,1012.64
2018-02-08T04:09:51.875Z,1012.67
2018-02-08T04:10:51.894Z,1012.60
2018-02-08T04:11:51.908Z,1012.59
2018-02-08T04:12:51.916Z,1012.57
2018-02-08T04:13:51.940Z,1012.59
2018-02-08T04:14:51.944Z,1012.56
2018-02-08T04:15:51.958Z,1012.59
2018-02-08T04:16:51.979Z,1012.60
2018-02-08T04:17:51.994Z,1012.60
2018-02-08T04:18:52.000Z,1012.59
2018-02-08T04:19:52.016Z,1012.56
2018-02-08T04:20:52.036Z,1012.60
2018-02-08T04:21:52.044Z,1012.57
2018-02-08T04:22:52.063Z,1012.63
2018-02-08T04:23:52.077Z,1012.64
2018-02-08T04:24:52.086Z,1012.59
2018-02-08T04:25:52.101Z,1012.63
2018-02-08T04:26:52.119Z,1012.64
2018-02-08T04:27:52.134Z,1012.64
2018-02-08T04:28:52.143Z,1012.64
2018-02-08T04:29:52.158Z,1012.64
2018-02-08T04:30:52.177Z,1012.66
2018-02-08T04:31:52.190Z,1012.68
2018-02-08T04:32:52.200Z,1012.68
2018-02-08T04:33:52.213Z,1012.70
2018-02-08T04:34:52.237Z,1012.70
2018-02-08T04:35:52.247Z,1012.71
2018-02-08T04:36:52.255Z,1012.70
2018-02-08T04:37:52.276Z,1012.74
2018-02-08T04:38:52.285Z,1012.71
2018-02-08T04:39:52.304Z,1012.70
2018-02-08T04:40:52.313Z,1012.69
2018-02-08T04:41:52.332Z,1012.67
2018-02-08T04:42:52.340Z,1012.68
2018-02-08T04:43:52.362Z,1012.65
2018-02-08T04:44:52.370Z,1012.67
2018-02-08T04:45:52.389Z,1012.75
2018-02-08T04:46:52.397Z,1012.67
2018-02-08T04:47:52.417Z,1012.67
2018-02-08T04:48:52.427Z,1012.64
2018-02-08T04:49:52.446Z,1012.64
2018-02-08T04:50:52.455Z,1012.63
2018-02-08T04:51:52.473Z,1012.63
2018-02-08T04:52:52.483Z,1012.60
2018-02-08T04:53:52.504Z,1012.58
2018-02-08T04:54:52.510Z,1012.61
2018-02-08T04:55:52.530Z,1012.63
2018-02-08T04:56:52.538Z,1012.60
2018-02-08T04:57:52.559Z,1012.61
2018-02-08T04:58:52.567Z,1012.66
2018-02-08T04:59:52.587Z,1012.64
2018-02-08T05:00:52.596Z,1012.63
2018-02-08T05:01:52.609Z,1012.64
2018-02-08T05:02:52.629Z,1012.65
2018-02-08T05:03:52.639Z,1012.67
2018-02-08T05:04:52.658Z,1012.61
2018-02-08T05:05:52.668Z,1012.59
2018-02-08T05:06:52.686Z,1012.57
2018-02-08T05:07:52.693Z,1012.61
2018-02-08T05:08:52.716Z,1012.60
2018-02-08T05:09:52.724Z,1012.62
2018-02-08T05:10:52.743Z,1012.60
2018-02-08T05:11:52.751Z,1012.59
2018-02-08T05:12:52.771Z,1012.62
2018-02-08T05:13:52.781Z,1012.62
2018-02-08T05:14:52.799Z,1012.62
2018-02-08T05:15:52.814Z,1012.60
2018-02-08T05:16:52.827Z,1012.64
2018-02-08T05:17:52.841Z,1012.63
2018-02-08T05:18:52.849Z,1012.66
2018-02-08T05:19:52.863Z,1012.63
2018-02-08T05:20:52.885Z,1012.68
2018-02-08T05:21:52.897Z,1012.70
2018-02-08T05:22:52.905Z,1012.73
2018-02-08T05:23:52.921Z,1012.69
2018-02-08T05:24:52.942Z,1012.71
2018-02-08T05:25:52.954Z,1012.68
2018-02-08T05:26:52.963Z,1012.67
2018-02-08T05:27:52.977Z,1012.68
2018-02-08T05:28:52.996Z,1012.63
2018-02-08T05:29:53.011Z,1012.68
2018-02-08T05:30:53.058Z,1012.69
2018-02-08T05:31:53.032Z,1012.68
2018-02-08T05:32:53.053Z,1012.64
2018-02-08T05:33:53.062Z,1012.70
2018-02-08T05:34:53.080Z,1012.71
2018-02-08T05:35:53.094Z,1012.71
2018-02-08T05:36:53.102Z,1012.78
2018-02-08T05:37:53.117Z,1012.81
2018-02-08T05:38:53.138Z,1012.78
2018-02-08T05:39:53.150Z,1012.83
2018-02-08T05:40:53.162Z,1012.77
2018-02-08T05:41:53.172Z,1012.79
2018-02-08T05:42:53.192Z,1012.79
2018-02-08T05:43:53.206Z,1012.77
2018-02-08T05:44:53.216Z,1012.78
2018-02-08T05:45:53.234Z,1012.78
2018-02-08T05:46:53.247Z,1012.75
2018-02-08T05:47:53.263Z,1012.74
2018-02-08T05:48:53.271Z,1012.75
2018-02-08T05:49:53.284Z,1012.81
2018-02-08T05:50:53.304Z,1012.74
2018-02-08T05:51:53.313Z,1012.83
2018-02-08T05:52:53.332Z,1012.80
2018-02-08T05:53:53.341Z,1012.81
2018-02-08T05:54:53.361Z,1012.82
2018-02-08T05:55:53.368Z,1012.90
2018-02-08T05:56:53.388Z,1012.88
2018-02-08T05:57:53.398Z,1012.89
2018-02-08T05:58:53.410Z,1012.93
2018-02-08T05:59:53.423Z,1012.87
2018-02-08T06:00:53.444Z,1012.90
2018-02-08T06:01:53.455Z,1012.89
2018-02-08T06:02:53.471Z,1012.88
2018-02-08T06:03:53.480Z,1012.94
2018-02-08T06:04:53.494Z,1012.91
2018-02-08T06:05:53.514Z,1012.92
2018-02-08T06:06:53.521Z,1012.92
2018-02-08T06:07:53.541Z,1012.93
2018-02-08T06:08:53.551Z,1012.95
2018-02-08T06:09:53.570Z,1012.92
2018-02-08T06:10:53.578Z,1012.93
2018-02-08T06:11:53.598Z,1012.94
2018-02-08T06:12:53.605Z,1012.97
2018-02-08T06:13:53.625Z,1012.90
2018-02-08T06:14:53.640Z,1012.96
2018-02-08T06:15:53.647Z,1012.92
2018-02-08T06:16:53.667Z,1012.93
2018-02-08T06:17:53.684Z,1012.94
2018-02-08T06:18:53.688Z,1013.00
2018-02-08T06:19:53.704Z,1013.00
2018-02-08T06:20:53.718Z,1013.03
2018-02-08T06:21:53.737Z,1012.96
2018-02-08T06:22:53.746Z,1013.04
2018-02-08T06:23:53.758Z,1012.97
2018-02-08T06:24:53.778Z,1013.03
2018-02-08T06:25:53.794Z,1013.03
2018-02-08T06:26:53.801Z,1012.99
2018-02-08T06:27:53.815Z,1013.06
2018-02-08T06:28:53.834Z,1013.08
2018-02-08T06:29:53.848Z,1013.04
2018-02-08T06:30:53.861Z,1013.07
2018-02-08T06:31:53.870Z,1013.07
2018-02-08T06:32:53.884Z,1013.07
2018-02-08T06:33:53.904Z,1013.03
2018-02-08T06:34:53.912Z,1013.00
2018-02-08T06:35:53.931Z,1013.04
2018-02-08T06:36:53.939Z,1013.04
2018-02-08T06:37:53.956Z,1013.10
2018-02-08T06:38:53.974Z,1013.11
2018-02-08T06:39:53.987Z,1013.14
2018-02-08T06:40:53.995Z,1013.13
2018-02-08T06:41:54.011Z,1013.10
2018-02-08T06:42:54.030Z,1013.08
2018-02-08T06:43:54.048Z,1013.06
2018-02-08T06:44:54.052Z,1013.07
2018-02-08T06:45:54.070Z,1013.10
2018-02-08T06:46:54.084Z,1013.12
2018-02-08T06:47:54.097Z,1013.11
2018-02-08T06:48:54.107Z,1013.14
2018-02-08T06:49:54.127Z,1013.20
2018-02-08T06:50:54.135Z,1013.15
2018-02-08T06:51:54.153Z,1013.22
2018-02-08T06:52:54.168Z,1013.28
2018-02-08T06:53:54.176Z,1013.24
2018-02-08T06:54:54.195Z,1013.25
2018-02-08T06:55:54.203Z,1013.28
2018-02-08T06:56:54.223Z,1013.28
2018-02-08T06:57:54.233Z,1013.25
2018-02-08T06:58:54.252Z,1013.27
2018-02-08T06:59:54.259Z,1013.24
2018-02-08T07:00:54.280Z,1013.29
2018-02-08T07:01:54.294Z,1013.31
2018-02-08T07:02:54.308Z,1013.30
2018-02-08T07:03:54.322Z,1013.30
2018-02-08T07:04:54.331Z,1013.35
2018-02-08T07:05:54.349Z,1013.38
2018-02-08T07:06:54.358Z,1013.37
2018-02-08T07:07:54.378Z,1013.39
2018-02-08T07:08:54.394Z,1013.39
2018-02-08T07:09:54.406Z,1013.37
2018-02-08T07:10:54.412Z,1013.37
2018-02-08T07:11:54.432Z,1013.40
2018-02-08T07:12:54.442Z,1013.40
2018-02-08T07:13:54.461Z,1013.42
2018-02-08T07:14:54.469Z,1013.41
2018-02-08T07:15:54.488Z,1013.43
2018-02-08T07:16:54.497Z,1013.46
2018-02-08T07:17:54.553Z,1013.47
2018-02-08T07:18:54.527Z,1013.50
2018-02-08T07:19:54.540Z,1013.51
2018-02-08T07:20:54.558Z,1013.55
2018-02-08T07:21:54.567Z,1013.51
2018-02-08T07:22:54.586Z,1013.54
2018-02-08T07:23:54.595Z,1013.56
2018-02-08T07:24:54.610Z,1013.58
2018-02-08T07:25:54.629Z,1013.60
2018-02-08T07:26:54.637Z,1013.57
2018-02-08T07:27:54.652Z,1013.64
2018-02-08T07:28:54.671Z,1013.64
2018-02-08T07:29:54.686Z,1013.59
2018-02-08T07:30:54.695Z,1013.66
2018-02-08T07:31:54.708Z,1013.65
2018-02-08T07:32:54.728Z,1013.67
2018-02-08T07:33:54.743Z,1013.70
2018-02-08T07:34:54.748Z,1013.63
2018-02-08T07:35:54.770Z,1013.67
2018-02-08T07:36:54.784Z,1013.67
2018-02-08T07:37:54.794Z,1013.66
2018-02-08T07:38:54.806Z,1013.67
2018-02-08T07:39:54.820Z,1013.70
2018-02-08T07:40:54.841Z,1013.74
2018-02-08T07:41:54.850Z,1013.66
2018-02-08T07:42:54.868Z,1013.70
2018-02-08T07:43:54.885Z,1013.66
2018-02-08T07:44:54.891Z,1013.76
2018-02-08T07:45:54.906Z,1013.79
2018-02-08T07:46:54.925Z,1013.72
2018-02-08T07:47:54.939Z,1013.79
2018-02-08T07:48:54.948Z,1013.78
2018-02-08T07:49:54.962Z,1013.74
2018-02-08T07:50:54.982Z,1013.78
2018-02-08T07:51:54.991Z,1013.78
2018-02-08T07:52:55.005Z,1013.81
2018-02-08T07:53:55.025Z,1013.75
2018-02-08T07:54:55.039Z,1013.83
2018-02-08T07:55:55.054Z,1013.82
2018-02-08T07:56:55.063Z,1013.90
2018-02-08T07:57:55.083Z,1013.87
2018-02-08T07:58:55.092Z,1013.86
2018-02-08T07:59:55.107Z,1013.85
2018-02-08T08:00:55.126Z,1013.87
2018-02-08T08:01:55.141Z,1013.88
2018-02-08T08:02:55.152Z,1013.81
2018-02-08T08:03:55.181Z,1013.81
2018-02-08T08:04:55.183Z,1013.82
2018-02-08T08:05:55.198Z,1013.82
2018-02-08T08:06:55.206Z,1013.85
2018-02-08T08:07:55.221Z,1013.88
2018-02-08T08:08:55.241Z,1013.84
2018-02-08T08:09:55.256Z,1013.83
2018-02-08T08:10:55.265Z,1013.87
2018-02-08T08:11:55.281Z,1013.86
2018-02-08T08:12:55.299Z,1013.95
2018-02-08T08:13:55.309Z,1013.91
2018-02-08T08:14:55.327Z,1013.95
2018-02-08T08:15:55.342Z,1013.98
2018-02-08T08:16:55.353Z,1014.00
2018-02-08T08:17:55.366Z,1013.97
2018-02-08T08:18:55.387Z,1014.01
2018-02-08T08:19:55.405Z,1013.97
2018-02-08T08:20:55.413Z,1014.02
2018-02-08T08:21:55.425Z,1014.03
2018-02-08T08:22:55.444Z,1014.00
2018-02-08T08:23:55.459Z,1014.04
2018-02-08T08:24:55.468Z,1014.08
2018-02-08T08:25:55.485Z,1014.05
2018-02-08T08:26:55.504Z,1014.09
2018-02-08T08:27:55.517Z,1014.04
2018-02-08T08:28:55.528Z,1014.06
2018-02-08T08:29:55.549Z,1014.02
2018-02-08T08:30:55.556Z,1014.04
2018-02-08T08:31:55.579Z,1014.07
2018-02-08T08:32:55.586Z,1014.01
2018-02-08T08:33:55.608Z,1014.09
2018-02-08T08:34:55.621Z,1014.06
2018-02-08T08:35:55.637Z,1014.10
2018-02-08T08:36:55.649Z,1014.03
2018-02-08T08:37:55.668Z,1014.04
2018-02-08T08:38:55.677Z,1014.03
2018-02-08T08:39:55.697Z,1014.04
2018-02-08T08:40:55.708Z,1013.99
2018-02-08T08:41:55.728Z,1013.97
2018-02-08T08:42:55.736Z,1014.03
2018-02-08T08:43:55.758Z,1014.03
2018-02-08T08:44:55.767Z,1013.97
2018-02-08T08:45:55.784Z,1013.99
2018-02-08T08:46:55.804Z,1013.97
2018-02-08T08:47:55.814Z,1014.02
2018-02-08T08:48:55.837Z,1014.00
2018-02-08T08:49:55.846Z,1014.05
2018-02-08T08:50:55.866Z,1014.00
2018-02-08T08:51:55.877Z,1013.95
2018-02-08T08:52:55.903Z,1013.93
2018-02-08T08:53:55.907Z,1013.97
2018-02-08T08:54:55.927Z,1013.95
2018-02-08T08:55:55.939Z,1013.92
2018-02-08T08:56:55.969Z,1013.93
2018-02-08T08:57:55.972Z,1013.96
2018-02-08T08:58:55.991Z,1013.99
2018-02-08T08:59:56.001Z,1013.99
2018-02-08T09:00:56.023Z,1013.98
2018-02-08T09:01:56.039Z,1014.04
2018-02-08T09:02:56.047Z,1014.05
2018-02-08T09:03:56.064Z,1014.04
2018-02-08T09:04:56.085Z,1014.05
2018-02-08T09:05:56.103Z,1014.01
2018-02-08T09:06:56.112Z,1014.08
2018-02-08T09:07:56.125Z,1014.01
2018-02-08T09:08:56.148Z,1014.10
2018-02-08T09:09:56.163Z,1014.08
2018-02-08T09:10:56.178Z,1014.10
2018-02-08T09:11:56.205Z,1014.12
2018-02-08T09:12:56.207Z,1014.12
2018-02-08T09:13:56.220Z,1014.18
2018-02-08T09:14:56.241Z,1014.28
2018-02-08T09:15:56.259Z,1014.32
2018-02-08T09:16:56.268Z,1014.41
2018-02-08T09:17:56.286Z,1014.32
2018-02-08T09:18:56.307Z,1014.21
2018-02-08T09:19:56.322Z,1014.13
2018-02-08T09:20:56.337Z,1014.09
2018-02-08T09:21:56.351Z,1014.08
2018-02-08T09:22:56.374Z,1014.27
2018-02-08T09:23:56.391Z,1014.18
2018-02-08T09:24:56.402Z,1014.10
2018-02-08T09:25:56.426Z,1014.12
2018-02-08T09:26:56.437Z,1014.22
2018-02-08T09:27:56.460Z,1014.18
2018-02-08T09:28:56.473Z,1014.21
2018-02-08T09:29:56.496Z,1014.17
2018-02-08T09:30:56.508Z,1014.21
2018-02-08T09:31:56.532Z,1014.14
2018-02-08T09:32:56.546Z,1014.18
2018-02-08T09:33:56.567Z,1014.22
2018-02-08T09:34:56.578Z,1014.19
2018-02-08T09:35:56.603Z,1014.26
2018-02-08T09:36:56.615Z,1014.21
2018-02-08T09:37:56.639Z,1014.28
2018-02-08T09:38:56.650Z,1014.56
2018-02-08T09:39:56.676Z,1014.61
2018-02-08T09:40:56.689Z,1014.54
2018-02-08T09:41:56.707Z,1014.37
2018-02-08T09:42:56.736Z,1014.15
2018-02-08T09:43:56.745Z,1014.02
2018-02-08T09:44:56.772Z,1014.05
2018-02-08T09:45:56.785Z,1014.03
2018-02-08T09:46:56.815Z,1014.05
2018-02-08T09:47:56.855Z,1014.22
2018-02-08T09:48:56.850Z,1014.45
2018-02-08T09:49:56.864Z,1014.41
2018-02-08T09:50:56.889Z,1014.38
2018-02-08T09:51:56.904Z,1014.40
2018-02-08T09:52:56.931Z,1014.27
2018-02-08T09:53:56.946Z,1014.35
2018-02-08T09:54:56.972Z,1014.32
2018-02-08T09:55:56.988Z,1014.37
2018-02-08T09:56:57.016Z,1014.35
2018-02-08T09:57:57.031Z,1014.35
2018-02-08T09:58:57.058Z,1014.39
2018-02-08T09:59:57.080Z,1014.26
2018-02-08T10:00:57.096Z,1014.31
2018-02-08T10:01:57.123Z,1014.33
2018-02-08T10:02:57.147Z,1014.30
2018-02-08T10:03:57.172Z,1014.32
2018-02-08T10:04:57.190Z,1014.31
2018-02-08T10:05:57.218Z,1014.33
2018-02-08T10:06:57.235Z,1014.34
2018-02-08T10:07:57.261Z,1014.30
2018-02-08T10:08:57.289Z,1014.29
2018-02-08T10:09:57.313Z,1014.34
2018-02-08T10:10:57.332Z,1014.32
2018-02-08T10:11:57.356Z,1014.26
2018-02-08T10:12:57.386Z,1014.20
2018-02-08T10:13:57.405Z,1014.27
2018-02-08T10:14:57.429Z,1014.22
2018-02-08T10:15:57.460Z,1014.25
2018-02-08T10:16:57.479Z,1014.23
2018-02-08T10:17:57.505Z,1014.27
2018-02-08T10:18:57.534Z,1014.29
2018-02-08T10:19:57.559Z,1014.33
2018-02-08T10:20:57.586Z,1014.35
2018-02-08T10:21:57.605Z,1014.31
2018-02-08T10:22:57.637Z,1014.36
2018-02-08T10:23:57.662Z,1014.30
2018-02-08T10:24:57.682Z,1014.30
2018-02-08T10:25:57.709Z,1014.28
2018-02-08T10:26:57.789Z,1014.30
2018-02-08T10:27:57.764Z,1014.28
2018-02-08T10:28:57.785Z,1014.32
2018-02-08T10:29:57.818Z,1014.18
2018-02-08T10:30:57.844Z,1014.26
2018-02-08T10:31:57.914Z,1014.30
2018-02-08T10:32:57.897Z,1014.31
2018-02-08T10:33:57.924Z,1014.29
2018-02-08T10:34:57.944Z,1014.16
2018-02-08T10:35:57.976Z,1014.29
2018-02-08T10:36:57.998Z,1014.26
2018-02-08T10:37:58.024Z,1014.22
2018-02-08T10:38:58.057Z,1014.10
2018-02-08T10:39:58.078Z,1014.18
2018-02-08T10:40:58.112Z,1014.23
2018-02-08T10:41:58.138Z,1014.19
2018-02-08T10:42:58.181Z,1014.19
2018-02-08T10:43:58.187Z,1014.14
2018-02-08T10:44:58.218Z,1014.12
2018-02-08T10:45:58.240Z,1014.12
2018-02-08T10:46:58.278Z,1014.17
2018-02-08T10:47:58.307Z,1014.19
2018-02-08T10:48:58.325Z,1014.28
2018-02-08T10:49:58.391Z,1014.28
2018-02-08T10:50:58.381Z,1014.26
2018-02-08T10:51:58.400Z,1014.24
2018-02-08T10:52:58.433Z,1014.26
2018-02-08T10:53:58.458Z,1014.27
2018-02-08T10:54:58.480Z,1014.28
2018-02-08T10:55:58.511Z,1014.28
2018-02-08T10:56:58.533Z,1014.29
2018-02-08T10:57:58.566Z,1014.28
2018-02-08T10:58:58.586Z,1014.23
2018-02-08T10:59:58.618Z,1014.24
2018-02-08T11:00:58.639Z,1014.25
2018-02-08T11:01:58.672Z,1014.28
2018-02-08T11:02:58.696Z,1014.27
2018-02-08T11:03:58.719Z,1014.30
2018-02-08T11:04:58.747Z,1014.28
2018-02-08T11:05:58.774Z,1014.26
2018-02-08T11:06:58.800Z,1014.29
2018-02-08T11:07:58.833Z,1014.26
2018-02-08T11:08:58.855Z,1014.29
2018-02-08T11:09:58.888Z,1014.33
2018-02-08T11:10:58.908Z,1014.33
2018-02-08T11:11:58.936Z,1014.37
2018-02-08T11:12:59.004Z,1014.43
2018-02-08T11:13:58.994Z,1014.38
2018-02-08T11:14:59.017Z,1014.36
2018-02-08T11:15:59.044Z,1014.34
2018-02-08T11:16:59.076Z,1014.29
2018-02-08T11:17:59.104Z,1014.31
2018-02-08T11:18:59.131Z,1014.33
2018-02-08T11:19:59.152Z,1014.32
2018-02-08T11:20:59.184Z,1014.33
2018-02-08T11:21:59.213Z,1014.33
2018-02-08T11:22:59.234Z,1014.38
2018-02-08T11:23:59.261Z,1014.37
2018-02-08T11:24:59.289Z,1014.29
2018-02-08T11:25:59.316Z,1014.18
2018-02-08T11:26:59.350Z,1014.27
2018-02-08T11:27:59.377Z,1014.24
2018-02-08T11:28:59.398Z,1014.23
2018-02-08T11:29:59.427Z,1014.22
2018-02-08T11:30:59.458Z,1014.26
2018-02-08T11:31:59.487Z,1014.19
2018-02-08T11:32:59.510Z,1014.23
2018-02-08T11:33:59.542Z,1014.23
2018-02-08T11:34:59.568Z,1014.22
2018-02-08T11:35:59.596Z,1014.24
2018-02-08T11:36:59.618Z,1014.27
2018-02-08T11:37:59.650Z,1014.25
2018-02-08T11:38:59.673Z,1014.21
2018-02-08T11:39:59.706Z,1014.22
2018-02-08T11:40:59.733Z,1014.29
2018-02-08T11:41:59.755Z,1014.35
2018-02-08T11:42:59.787Z,1014.34
2018-02-08T11:43:59.809Z,1014.33
2018-02-08T11:44:59.842Z,1014.41
2018-02-08T11:45:59.863Z,1014.35
2018-02-08T11:46:59.896Z,1014.38
2018-02-08T11:47:59.921Z,1014.31
2018-02-08T11:48:59.952Z,1014.35
2018-02-08T11:49:59.977Z,1014.39
2018-02-08T11:51:00.000Z,1014.39
2018-02-08T11:52:00.029Z,1014.37
2018-02-08T11:53:00.056Z,1014.35
2018-02-08T11:54:00.084Z,1014.37
2018-02-08T11:55:00.114Z,1014.32
2018-02-08T11:56:00.142Z,1014.39
2018-02-08T11:57:00.164Z,1014.30
2018-02-08T11:58:00.196Z,1014.31
2018-02-08T11:59:00.218Z,1014.32
2018-02-08T12:00:00.250Z,1014.33
2018-02-08T12:01:00.273Z,1014.35
2018-02-08T12:02:00.306Z,1014.33
2018-02-08T12:03:00.327Z,1014.29
2018-02-08T12:04:00.361Z,1014.27
2018-02-08T12:05:00.386Z,1014.27
2018-02-08T12:06:00.415Z,1014.21